createdAt,value
2023-05-03T00:00:47.548Z,6.83
2023-05-03T00:01:47.578Z,6.79
2023-05-03T00:02:47.635Z,6.69
2023-05-03T00:03:47.555Z,6.71
2023-05-03T00:04:47.581Z,6.56
2023-05-03T00:05:47.777Z,6.71
2023-05-03T00:06:47.596Z,6.91
2023-05-03T00:07:47.559Z,7.02
2023-05-03T00:08:47.514Z,6.94
2023-05-03T00:09:47.483Z,7.07
2023-05-03T00:10:47.540Z,7.08
2023-05-03T00:11:47.493Z,7.19
2023-05-03T00:12:47.465Z,7.09
2023-05-03T00:13:47.457Z,6.59
2023-05-03T00:14:47.466Z,6.11
2023-05-03T00:15:47.465Z,5.89
2023-05-03T00:16:47.513Z,5.96
2023-05-03T00:17:47.486Z,6.11
2023-05-03T00:18:49.101Z,6.14
2023-05-03T00:19:47.456Z,6.00
2023-05-03T00:20:47.421Z,5.86
2023-05-03T00:21:47.422Z,5.53
2023-05-03T00:22:47.430Z,5.38
2023-05-03T00:23:47.384Z,5.22
2023-05-03T00:24:47.393Z,5.20
2023-05-03T00:25:47.415Z,5.16
2023-05-03T00:26:47.398Z,5.31
2023-05-03T00:27:47.387Z,5.31
2023-05-03T00:28:47.366Z,5.25
2023-05-03T00:29:47.386Z,5.28
2023-05-03T00:30:47.395Z,5.22
2023-05-03T00:31:47.344Z,5.17
2023-05-03T00:32:47.415Z,5.31
2023-05-03T00:33:47.339Z,5.35
2023-05-03T00:34:47.791Z,5.45
2023-05-03T00:35:47.358Z,5.55
2023-05-03T00:36:47.325Z,5.52
2023-05-03T00:37:47.329Z,5.38
2023-05-03T00:38:47.351Z,5.28
2023-05-03T00:39:47.318Z,5.20
2023-05-03T00:40:47.324Z,5.38
2023-05-03T00:41:47.314Z,5.55
2023-05-03T00:42:47.292Z,5.56
2023-05-03T00:43:47.295Z,5.57
2023-05-03T00:44:48.286Z,5.52
2023-05-03T00:45:47.258Z,5.53
2023-05-03T00:46:47.316Z,5.55
2023-05-03T00:47:47.329Z,5.73
2023-05-03T00:48:47.245Z,5.57
2023-05-03T00:49:47.269Z,5.46
2023-05-03T00:50:47.313Z,5.46
2023-05-03T00:51:47.231Z,5.52
2023-05-03T00:52:47.233Z,5.56
2023-05-03T00:53:47.249Z,5.70
2023-05-03T00:54:47.285Z,5.74
2023-05-03T00:55:47.201Z,5.55
2023-05-03T00:56:51.480Z,5.41
2023-05-03T00:57:49.219Z,5.35
2023-05-03T00:58:47.194Z,5.40
2023-05-03T00:59:47.225Z,5.43
2023-05-03T01:00:47.198Z,5.43
2023-05-03T01:01:47.205Z,5.46
2023-05-03T01:02:47.244Z,5.43
2023-05-03T01:03:47.284Z,5.45
2023-05-03T01:04:47.148Z,5.52
2023-05-03T01:05:47.157Z,5.35
2023-05-03T01:06:47.237Z,5.37
2023-05-03T01:07:47.149Z,5.20
2023-05-03T01:08:47.139Z,5.04
2023-05-03T01:09:47.125Z,4.88
2023-05-03T01:10:47.131Z,4.70
2023-05-03T01:11:47.125Z,4.79
2023-05-03T01:12:47.097Z,4.92
2023-05-03T01:13:47.126Z,4.91
2023-05-03T01:14:47.091Z,4.91
2023-05-03T01:15:47.142Z,4.94
2023-05-03T01:16:47.108Z,4.83
2023-05-03T01:17:47.182Z,4.77
2023-05-03T01:18:47.058Z,4.70
2023-05-03T01:19:47.081Z,4.76
2023-05-03T01:20:47.046Z,4.73
2023-05-03T01:21:47.041Z,4.79
2023-05-03T01:22:47.083Z,4.89
2023-05-03T01:23:47.030Z,4.95
2023-05-03T01:24:47.038Z,5.12
2023-05-03T01:25:47.067Z,5.14
2023-05-03T01:26:47.015Z,5.25
2023-05-03T01:27:47.048Z,5.25
2023-05-03T01:28:47.007Z,5.27
2023-05-03T01:29:46.993Z,5.35
2023-05-03T01:30:47.009Z,5.32
2023-05-03T01:31:47.055Z,5.40
2023-05-03T01:32:47.103Z,5.34
2023-05-03T01:33:46.971Z,5.37
2023-05-03T01:34:46.989Z,5.37
2023-05-03T01:35:46.992Z,5.43
2023-05-03T01:36:46.957Z,5.46
2023-05-03T01:37:46.947Z,5.37
2023-05-03T01:38:47.003Z,5.49
2023-05-03T01:39:46.938Z,5.50
2023-05-03T01:40:46.974Z,5.49
2023-05-03T01:41:46.927Z,5.59
2023-05-03T01:42:46.917Z,5.57
2023-05-03T01:43:46.965Z,5.48
2023-05-03T01:44:46.899Z,5.40
2023-05-03T01:45:46.979Z,5.23
2023-05-03T01:46:46.897Z,5.19
2023-05-03T01:47:46.961Z,5.30
2023-05-03T01:48:46.885Z,5.23
2023-05-03T01:49:46.897Z,5.27
2023-05-03T01:50:47.008Z,5.23
2023-05-03T01:51:46.917Z,5.14
2023-05-03T01:52:46.902Z,4.77
2023-05-03T01:53:46.888Z,4.64
2023-05-03T01:54:46.846Z,4.64
2023-05-03T01:55:46.852Z,4.67
2023-05-03T01:56:46.839Z,4.52
2023-05-03T01:57:46.874Z,4.57
2023-05-03T01:58:46.805Z,4.51
2023-05-03T01:59:46.810Z,4.43
2023-05-03T02:00:46.822Z,4.44
2023-05-03T02:01:46.864Z,4.39
2023-05-03T02:02:46.813Z,4.18
2023-05-03T02:03:46.794Z,4.10
2023-05-03T02:04:46.830Z,4.32
2023-05-03T02:05:46.816Z,4.37
2023-05-03T02:06:46.919Z,4.37
2023-05-03T02:07:46.754Z,4.47
2023-05-03T02:08:46.837Z,4.50
2023-05-03T02:09:46.755Z,4.32
2023-05-03T02:10:47.218Z,4.43
2023-05-03T02:11:46.752Z,4.55
2023-05-03T02:12:46.816Z,4.44
2023-05-03T02:13:46.735Z,4.24
2023-05-03T02:14:46.721Z,4.14
2023-05-03T02:15:46.757Z,4.22
2023-05-03T02:16:46.763Z,4.24
2023-05-03T02:17:46.721Z,4.21
2023-05-03T02:18:46.707Z,4.14
2023-05-03T02:19:46.684Z,4.04
2023-05-03T02:20:46.742Z,4.21
2023-05-03T02:21:46.709Z,4.19
2023-05-03T02:22:46.680Z,4.32
2023-05-03T02:23:46.643Z,4.32
2023-05-03T02:24:46.681Z,4.25
2023-05-03T02:25:46.672Z,4.33
2023-05-03T02:26:46.667Z,4.39
2023-05-03T02:27:46.665Z,4.25
2023-05-03T02:28:46.616Z,4.43
2023-05-03T02:29:46.636Z,4.47
2023-05-03T02:30:46.704Z,4.32
2023-05-03T02:31:46.619Z,4.39
2023-05-03T02:32:46.729Z,4.16
2023-05-03T02:33:46.611Z,4.01
2023-05-03T02:34:46.599Z,4.06
2023-05-03T02:35:46.589Z,3.98
2023-05-03T02:36:46.555Z,3.97
2023-05-03T02:37:46.588Z,4.03
2023-05-03T02:38:46.571Z,3.85
2023-05-03T02:39:46.557Z,4.10
2023-05-03T02:40:46.553Z,4.03
2023-05-03T02:41:46.548Z,3.85
2023-05-03T02:42:46.526Z,3.70
2023-05-03T02:43:46.600Z,3.75
2023-05-03T02:44:46.568Z,3.90
2023-05-03T02:45:46.509Z,3.86
2023-05-03T02:46:46.670Z,3.88
2023-05-03T02:47:46.532Z,4.10
2023-05-03T02:48:46.522Z,4.21
2023-05-03T02:49:46.506Z,4.15
2023-05-03T02:50:46.482Z,4.03
2023-05-03T02:51:46.458Z,3.92
2023-05-03T02:52:46.468Z,3.89
2023-05-03T02:53:46.465Z,3.83
2023-05-03T02:54:46.450Z,3.83
2023-05-03T02:55:46.482Z,3.67
2023-05-03T02:56:46.503Z,3.61
2023-05-03T02:57:46.460Z,3.49
2023-05-03T02:58:46.440Z,3.65
2023-05-03T02:59:46.417Z,3.80
2023-05-03T03:00:46.442Z,3.75
2023-05-03T03:01:46.471Z,3.64
2023-05-03T03:02:46.593Z,3.82
2023-05-03T03:03:46.515Z,3.79
2023-05-03T03:04:46.371Z,3.80
2023-05-03T03:05:46.368Z,3.68
2023-05-03T03:06:46.460Z,3.78
2023-05-03T03:07:46.368Z,4.00
2023-05-03T03:08:46.352Z,4.00
2023-05-03T03:09:46.378Z,4.12
2023-05-03T03:10:46.359Z,4.29
2023-05-03T03:11:46.320Z,4.22
2023-05-03T03:12:46.416Z,4.24
2023-05-03T03:13:46.321Z,4.34
2023-05-03T03:14:46.336Z,4.36
2023-05-03T03:15:46.435Z,4.36
2023-05-03T03:16:46.312Z,4.39
2023-05-03T03:17:47.400Z,4.51
2023-05-03T03:18:46.321Z,4.33
2023-05-03T03:19:46.299Z,4.43
2023-05-03T03:20:46.343Z,4.46
2023-05-03T03:21:46.301Z,4.51
2023-05-03T03:22:46.301Z,4.50
2023-05-03T03:23:46.283Z,4.32
2023-05-03T03:24:46.260Z,4.21
2023-05-03T03:25:46.255Z,4.08
2023-05-03T03:26:46.248Z,3.98
2023-05-03T03:27:46.242Z,4.01
2023-05-03T03:28:46.276Z,3.92
2023-05-03T03:29:46.220Z,4.00
2023-05-03T03:30:46.397Z,3.80
2023-05-03T03:31:46.240Z,3.92
2023-05-03T03:32:46.250Z,3.97
2023-05-03T03:33:46.183Z,4.10
2023-05-03T03:34:46.197Z,4.03
2023-05-03T03:35:46.204Z,4.08
2023-05-03T03:36:46.234Z,4.15
2023-05-03T03:37:46.768Z,4.22
2023-05-03T03:38:46.190Z,4.32
2023-05-03T03:39:46.162Z,4.26
2023-05-03T03:40:46.215Z,4.25
2023-05-03T03:41:46.158Z,4.01
2023-05-03T03:42:46.168Z,4.04
2023-05-03T03:43:46.160Z,4.10
2023-05-03T03:44:46.126Z,4.34
2023-05-03T03:45:46.137Z,4.22
2023-05-03T03:46:46.267Z,4.21
2023-05-03T03:47:46.174Z,4.33
2023-05-03T03:48:46.103Z,4.29
2023-05-03T03:49:46.087Z,4.10
2023-05-03T03:50:46.098Z,4.03
2023-05-03T03:51:46.131Z,4.10
2023-05-03T03:52:46.078Z,4.08
2023-05-03T03:53:46.090Z,4.07
2023-05-03T03:54:46.103Z,4.21
2023-05-03T03:55:46.069Z,4.15
2023-05-03T03:56:46.051Z,4.28
2023-05-03T03:57:46.078Z,4.43
2023-05-03T03:58:46.050Z,4.36
2023-05-03T03:59:46.020Z,4.32
2023-05-03T04:00:46.037Z,4.33
2023-05-03T04:01:46.113Z,4.29
2023-05-03T04:02:47.098Z,4.32
2023-05-03T04:03:46.133Z,4.50
2023-05-03T04:04:45.996Z,4.36
2023-05-03T04:05:46.097Z,4.46
2023-05-03T04:06:46.060Z,4.46
2023-05-03T04:07:45.963Z,4.40
2023-05-03T04:08:46.002Z,4.43
2023-05-03T04:09:45.996Z,4.44
2023-05-03T04:10:45.957Z,4.46
2023-05-03T04:11:45.991Z,4.39
2023-05-03T04:12:45.959Z,4.44
2023-05-03T04:13:45.964Z,4.51
2023-05-03T04:14:46.021Z,4.42
2023-05-03T04:15:45.929Z,4.47
2023-05-03T04:16:45.927Z,4.33
2023-05-03T04:17:45.960Z,4.40
2023-05-03T04:18:45.909Z,4.26
2023-05-03T04:19:45.886Z,4.28
2023-05-03T04:20:45.907Z,4.39
2023-05-03T04:21:45.879Z,4.22
2023-05-03T04:22:47.293Z,4.25
2023-05-03T04:23:45.856Z,4.00
2023-05-03T04:24:45.858Z,3.97
2023-05-03T04:25:46.769Z,4.10
2023-05-03T04:26:45.863Z,4.15
2023-05-03T04:27:45.829Z,4.12
2023-05-03T04:28:45.849Z,4.03
2023-05-03T04:29:45.827Z,4.01
2023-05-03T04:30:45.865Z,4.18
2023-05-03T04:31:45.856Z,4.22
2023-05-03T04:32:45.846Z,4.21
2023-05-03T04:33:45.805Z,4.33
2023-05-03T04:34:48.490Z,4.36
2023-05-03T04:35:45.807Z,4.52
2023-05-03T04:36:45.780Z,4.42
2023-05-03T04:37:45.853Z,4.50
2023-05-03T04:38:45.812Z,4.54
2023-05-03T04:39:45.748Z,4.51
2023-05-03T04:40:46.488Z,4.42
2023-05-03T04:41:45.738Z,4.57
2023-05-03T04:42:45.770Z,4.80
2023-05-03T04:43:45.751Z,4.91
2023-05-03T04:44:45.760Z,4.99
2023-05-03T04:45:45.739Z,4.94
2023-05-03T04:46:48.853Z,4.99
2023-05-03T04:48:04.944Z,4.99
2023-05-03T04:48:46.328Z,4.98
2023-05-03T04:49:45.804Z,5.14
2023-05-03T04:50:50.735Z,5.07
2023-05-03T04:51:50.184Z,5.27
2023-05-03T04:52:45.682Z,5.28
2023-05-03T04:53:45.714Z,5.41
2023-05-03T04:54:45.669Z,5.37
2023-05-03T04:55:45.658Z,5.48
2023-05-03T04:56:45.643Z,5.52
2023-05-03T04:57:45.655Z,5.55
2023-05-03T04:58:45.635Z,5.64
2023-05-03T04:59:45.659Z,5.77
2023-05-03T05:00:45.638Z,5.82
2023-05-03T05:01:45.683Z,5.82
2023-05-03T05:02:45.724Z,6.01
2023-05-03T05:03:45.946Z,6.10
2023-05-03T05:04:46.697Z,6.06
2023-05-03T05:05:45.596Z,5.96
2023-05-03T05:06:48.381Z,5.78
2023-05-03T05:07:45.650Z,5.89
2023-05-03T05:08:45.587Z,5.98
2023-05-03T05:09:45.587Z,6.00
2023-05-03T05:10:45.556Z,6.03
2023-05-03T05:11:46.577Z,6.11
2023-05-03T05:12:45.552Z,6.10
2023-05-03T05:13:45.546Z,6.04
2023-05-03T05:14:45.537Z,6.19
2023-05-03T05:15:45.552Z,6.22
2023-05-03T05:16:45.574Z,6.41
2023-05-03T05:17:45.625Z,6.32
2023-05-03T05:18:45.549Z,6.40
2023-05-03T05:19:45.507Z,6.43
2023-05-03T05:20:45.572Z,6.30
2023-05-03T05:21:45.506Z,6.06
2023-05-03T05:22:45.492Z,5.98
2023-05-03T05:23:45.499Z,6.22
2023-05-03T05:24:45.474Z,6.28
2023-05-03T05:25:45.486Z,6.19
2023-05-03T05:26:45.483Z,6.09
2023-05-03T05:27:45.487Z,5.83
2023-05-03T05:28:45.449Z,5.96
2023-05-03T05:29:45.449Z,5.85
2023-05-03T05:30:45.451Z,6.01
2023-05-03T05:31:45.604Z,6.03
2023-05-03T05:32:45.423Z,5.95
2023-05-03T05:33:45.429Z,6.04
2023-05-03T05:34:45.871Z,6.10
2023-05-03T05:35:45.404Z,6.16
2023-05-03T05:36:45.407Z,6.01
2023-05-03T05:37:45.374Z,6.06
2023-05-03T05:38:45.383Z,6.00
2023-05-03T05:39:45.389Z,6.07
2023-05-03T05:40:45.381Z,6.16
2023-05-03T05:41:45.361Z,6.19
2023-05-03T05:42:45.353Z,6.16
2023-05-03T05:43:45.389Z,6.13
2023-05-03T05:44:45.372Z,6.38
2023-05-03T05:45:45.345Z,6.43
2023-05-03T05:46:45.362Z,6.41
2023-05-03T05:47:45.355Z,6.32
2023-05-03T05:48:45.342Z,6.43
2023-05-03T05:49:45.352Z,6.51
2023-05-03T05:50:45.325Z,6.48
2023-05-03T05:51:45.287Z,6.71
2023-05-03T05:52:45.396Z,6.54
2023-05-03T05:53:45.327Z,6.66
2023-05-03T05:54:45.281Z,6.59
2023-05-03T05:55:45.289Z,6.51
2023-05-03T05:56:45.248Z,6.66
2023-05-03T05:57:45.281Z,6.61
2023-05-03T05:58:45.286Z,6.59
2023-05-03T05:59:45.257Z,6.87
2023-05-03T06:00:45.248Z,6.98
2023-05-03T06:01:45.269Z,6.94
2023-05-03T06:02:45.360Z,6.98
2023-05-03T06:03:45.263Z,6.84
2023-05-03T06:04:45.260Z,6.97
2023-05-03T06:05:45.308Z,6.97
2023-05-03T06:06:45.256Z,7.04
2023-05-03T06:07:45.222Z,7.12
2023-05-03T06:08:45.212Z,7.15
2023-05-03T06:09:45.253Z,7.26
2023-05-03T06:10:45.196Z,7.53
2023-05-03T06:11:45.285Z,7.60
2023-05-03T06:12:45.299Z,7.59
2023-05-03T06:13:45.251Z,7.53
2023-05-03T06:15:01.041Z,7.62
2023-05-03T06:15:47.169Z,7.66
2023-05-03T06:16:45.297Z,7.75
2023-05-03T06:17:45.173Z,7.90
2023-05-03T06:18:45.127Z,8.07
2023-05-03T06:19:45.237Z,8.25
2023-05-03T06:20:46.220Z,8.33
2023-05-03T06:21:45.113Z,8.47
2023-05-03T06:22:45.147Z,8.48
2023-05-03T06:23:45.127Z,8.37
2023-05-03T06:24:45.085Z,8.48
2023-05-03T06:25:45.086Z,8.69
2023-05-03T06:26:45.090Z,8.76
2023-05-03T06:27:46.112Z,8.96
2023-05-03T06:28:45.068Z,8.90
2023-05-03T06:29:45.093Z,8.88
2023-05-03T06:30:45.114Z,8.76
2023-05-03T06:31:45.308Z,9.02
2023-05-03T06:32:45.054Z,9.04
2023-05-03T06:33:45.040Z,9.12
2023-05-03T06:34:45.035Z,9.13
2023-05-03T06:35:45.025Z,9.16
2023-05-03T06:36:45.021Z,9.16
2023-05-03T06:37:44.998Z,9.28
2023-05-03T06:38:45.015Z,9.30
2023-05-03T06:39:44.986Z,9.39
2023-05-03T06:40:44.985Z,9.46
2023-05-03T06:41:44.988Z,9.58
2023-05-03T06:42:45.003Z,9.58
2023-05-03T06:43:45.022Z,9.66
2023-05-03T06:44:44.983Z,9.73
2023-05-03T06:45:44.992Z,9.67
2023-05-03T06:46:44.983Z,9.73
2023-05-03T06:47:44.992Z,9.70
2023-05-03T06:48:45.031Z,9.63
2023-05-03T06:49:44.959Z,9.75
2023-05-03T06:50:44.922Z,9.82
2023-05-03T06:51:44.999Z,9.82
2023-05-03T06:52:44.931Z,10.03
2023-05-03T06:53:44.960Z,10.15
2023-05-03T06:54:44.917Z,10.04
2023-05-03T06:55:44.897Z,9.82
2023-05-03T06:56:44.892Z,9.57
2023-05-03T06:57:44.878Z,9.73
2023-05-03T06:58:44.867Z,9.97
2023-05-03T06:59:45.031Z,10.21
2023-05-03T07:00:45.016Z,10.46
2023-05-03T07:01:44.897Z,10.42
2023-05-03T07:02:44.951Z,10.42
2023-05-03T07:03:45.037Z,10.63
2023-05-03T07:04:44.845Z,10.81
2023-05-03T07:05:44.865Z,10.84
2023-05-03T07:06:55.849Z,10.86
2023-05-03T07:07:46.889Z,10.62
2023-05-03T07:08:44.854Z,10.68
2023-05-03T07:09:44.822Z,10.81
2023-05-03T07:10:44.806Z,10.74
2023-05-03T07:11:44.820Z,10.77
2023-05-03T07:12:44.781Z,10.83
2023-05-03T07:13:44.787Z,10.77
2023-05-03T07:14:44.816Z,10.66
2023-05-03T07:15:44.803Z,10.88
2023-05-03T07:16:44.842Z,10.95
2023-05-03T07:17:44.810Z,10.96
2023-05-03T07:18:44.766Z,10.95
2023-05-03T07:19:45.017Z,11.20
2023-05-03T07:20:44.747Z,11.54
2023-05-03T07:21:44.733Z,12.11
2023-05-03T07:22:44.784Z,13.41
2023-05-03T07:23:44.762Z,14.42
2023-05-03T07:24:44.798Z,15.12
2023-05-03T07:25:44.775Z,15.61
2023-05-03T07:26:44.893Z,16.14
2023-05-03T07:27:44.717Z,16.22
2023-05-03T07:28:44.687Z,16.33
2023-05-03T07:29:45.330Z,15.85
2023-05-03T07:30:44.694Z,15.57
2023-05-03T07:31:44.723Z,15.86
2023-05-03T07:32:44.774Z,16.37
2023-05-03T07:33:44.798Z,16.71
2023-05-03T07:34:44.661Z,16.41
2023-05-03T07:35:44.705Z,16.93
2023-05-03T07:36:44.626Z,16.93
2023-05-03T07:37:44.638Z,16.59
2023-05-03T07:38:44.673Z,16.42
2023-05-03T07:39:44.611Z,16.41
2023-05-03T07:40:44.609Z,16.55
2023-05-03T07:41:44.607Z,16.40
2023-05-03T07:42:44.617Z,15.94
2023-05-03T07:43:47.261Z,15.68
2023-05-03T07:44:44.583Z,16.09
2023-05-03T07:45:45.332Z,16.65
2023-05-03T07:46:44.559Z,17.06
2023-05-03T07:47:44.644Z,17.35
2023-05-03T07:48:44.809Z,17.28
2023-05-03T07:49:44.562Z,17.57
2023-05-03T07:50:44.553Z,17.79
2023-05-03T07:51:44.536Z,17.50
2023-05-03T07:52:44.537Z,17.63
2023-05-03T07:53:44.554Z,17.97
2023-05-03T07:54:44.556Z,17.69
2023-05-03T07:55:44.581Z,17.84
2023-05-03T07:56:44.496Z,18.09
2023-05-03T07:57:44.506Z,17.48
2023-05-03T07:58:46.733Z,17.15
2023-05-03T07:59:44.607Z,17.20
2023-05-03T08:00:44.492Z,17.41
2023-05-03T08:01:44.466Z,17.36
2023-05-03T08:02:44.638Z,18.90
2023-05-03T08:03:44.689Z,20.20
2023-05-03T08:04:44.593Z,19.02
2023-05-03T08:05:44.576Z,18.15
2023-05-03T08:06:44.463Z,17.57
2023-05-03T08:07:44.429Z,17.03
2023-05-03T08:08:44.443Z,17.41
2023-05-03T08:09:44.791Z,17.97
2023-05-03T08:10:44.413Z,17.94
2023-05-03T08:11:44.554Z,18.28
2023-05-03T08:12:44.405Z,18.28
2023-05-03T08:13:44.445Z,18.95
2023-05-03T08:14:44.426Z,19.84
2023-05-03T08:15:44.507Z,20.27
2023-05-03T08:16:44.411Z,21.63
2023-05-03T08:17:44.478Z,21.56
2023-05-03T08:18:44.363Z,20.71
2023-05-03T08:19:44.398Z,20.21
2023-05-03T08:20:44.375Z,19.46
2023-05-03T08:21:44.336Z,19.53
2023-05-03T08:22:44.325Z,20.28
2023-05-03T08:23:44.358Z,20.86
2023-05-03T08:24:44.424Z,21.29
2023-05-03T08:25:44.320Z,20.35
2023-05-03T08:26:44.311Z,19.43
2023-05-03T08:27:44.324Z,19.88
2023-05-03T08:28:44.273Z,20.47
2023-05-03T08:29:45.293Z,18.73
2023-05-03T08:30:44.278Z,19.78
2023-05-03T08:31:44.353Z,20.33
2023-05-03T08:32:44.350Z,21.61
2023-05-03T08:33:44.262Z,22.86
2023-05-03T08:34:44.783Z,23.77
2023-05-03T08:35:44.273Z,23.70
2023-05-03T08:36:44.231Z,22.31
2023-05-03T08:37:44.266Z,20.77
2023-05-03T08:38:44.236Z,21.97
2023-05-03T08:39:44.245Z,22.67
2023-05-03T08:41:16.660Z,23.38
2023-05-03T08:43:44.440Z,22.22
2023-05-03T08:45:17.979Z,22.90
2023-05-03T08:46:18.027Z,23.47
2023-05-03T08:47:17.954Z,24.22
2023-05-03T08:51:09.151Z,23.46
2023-05-03T08:52:10.251Z,24.44
2023-05-03T08:53:10.218Z,25.06
2023-05-03T08:54:10.218Z,25.49
2023-05-03T08:55:10.245Z,24.16
2023-05-03T08:56:10.247Z,20.68
2023-05-03T08:57:10.228Z,18.99
2023-05-03T08:58:43.846Z,20.08
2023-05-03T08:59:10.244Z,20.59
2023-05-03T09:00:10.198Z,20.06
2023-05-03T09:01:10.195Z,20.13
2023-05-03T09:02:10.273Z,21.26
2023-05-03T09:03:10.281Z,22.62
2023-05-03T09:04:10.319Z,22.80
2023-05-03T09:05:10.893Z,22.19
2023-05-03T09:06:10.165Z,22.67
2023-05-03T09:07:10.195Z,22.97
2023-05-03T09:08:10.114Z,22.12
2023-05-03T09:09:10.134Z,21.54
2023-05-03T09:10:10.145Z,21.09
2023-05-03T09:11:10.113Z,21.54
2023-05-03T09:12:10.154Z,20.64
2023-05-03T09:13:10.221Z,20.98
2023-05-03T09:14:10.193Z,21.24
2023-05-03T09:15:10.081Z,22.35
2023-05-03T09:16:10.108Z,22.25
2023-05-03T09:17:10.113Z,22.68
2023-05-03T09:18:10.149Z,23.34
2023-05-03T09:19:10.063Z,22.14
2023-05-03T09:20:10.810Z,22.14
2023-05-03T09:21:10.037Z,22.65
2023-05-03T09:22:10.043Z,22.64
2023-05-03T09:23:10.152Z,22.39
2023-05-03T09:24:10.009Z,23.14
2023-05-03T09:25:10.047Z,24.02
2023-05-03T09:26:10.027Z,22.82
2023-05-03T09:27:10.004Z,22.80
2023-05-03T09:28:10.003Z,23.34
2023-05-03T09:29:10.046Z,23.64
2023-05-03T09:30:10.057Z,23.43
2023-05-03T09:31:11.478Z,23.11
2023-05-03T09:32:09.989Z,23.04
2023-05-03T09:33:10.253Z,22.89
2023-05-03T09:34:09.955Z,21.36
2023-05-03T09:35:09.965Z,21.79
2023-05-03T09:36:10.022Z,22.25
2023-05-03T09:37:09.975Z,22.64
2023-05-03T09:38:09.942Z,22.39
2023-05-03T09:39:09.928Z,22.74
2023-05-03T09:40:09.914Z,21.92
2023-05-03T09:41:10.877Z,20.54
2023-05-03T09:42:09.950Z,20.05
2023-05-03T09:43:09.901Z,20.21
2023-05-03T09:44:09.875Z,21.08
2023-05-03T09:45:09.935Z,22.32
2023-05-03T09:46:09.923Z,23.04
2023-05-03T09:47:09.883Z,21.85
2023-05-03T09:48:09.945Z,21.66
2023-05-03T09:49:09.869Z,21.21
2023-05-03T09:50:09.886Z,21.32
2023-05-03T09:51:09.888Z,22.23
2023-05-03T09:52:09.836Z,21.23
2023-05-03T09:53:09.838Z,21.66
2023-05-03T09:54:09.825Z,20.86
2023-05-03T09:55:09.831Z,21.57
2023-05-03T09:56:09.843Z,21.26
2023-05-03T09:57:09.839Z,20.50
2023-05-03T09:58:09.851Z,22.09
2023-05-03T09:59:09.795Z,22.89
2023-05-03T10:00:09.796Z,23.42
2023-05-03T10:01:09.844Z,23.40
2023-05-03T10:02:09.799Z,22.69
2023-05-03T10:03:09.799Z,22.27
2023-05-03T10:04:09.831Z,22.87
2023-05-03T10:05:09.775Z,22.64
2023-05-03T10:06:09.770Z,23.12
2023-05-03T10:07:11.294Z,23.11
2023-05-03T10:08:09.765Z,23.12
2023-05-03T10:09:09.733Z,23.79
2023-05-03T10:10:09.748Z,24.44
2023-05-03T10:11:09.763Z,25.35
2023-05-03T10:12:09.709Z,23.47
2023-05-03T10:13:10.724Z,22.41
2023-05-03T10:14:09.720Z,22.41
2023-05-03T10:15:09.728Z,22.50
2023-05-03T10:16:09.773Z,22.78
2023-05-03T10:17:09.677Z,23.82
2023-05-03T10:18:09.760Z,24.87
2023-05-03T10:19:10.542Z,23.40
2023-05-03T10:20:09.646Z,23.49
2023-05-03T10:21:09.675Z,23.05
2023-05-03T10:22:09.665Z,23.85
2023-05-03T10:23:09.672Z,25.19
2023-05-03T10:24:09.643Z,25.20
2023-05-03T10:25:10.385Z,24.75
2023-05-03T10:26:09.712Z,24.00
2023-05-03T10:27:09.611Z,23.53
2023-05-03T10:28:10.421Z,24.14
2023-05-03T10:29:09.661Z,23.40
2023-05-03T10:30:09.597Z,23.57
2023-05-03T10:31:09.662Z,23.23
2023-05-03T10:32:09.564Z,22.32
2023-05-03T10:33:09.596Z,21.27
2023-05-03T10:34:09.560Z,22.72
2023-05-03T10:35:09.574Z,23.68
2023-05-03T10:36:09.571Z,24.34
2023-05-03T10:37:09.562Z,24.12
2023-05-03T10:38:09.563Z,24.71
2023-05-03T10:39:09.517Z,24.60
2023-05-03T10:40:09.513Z,23.98
2023-05-03T10:41:09.514Z,24.91
2023-05-03T10:42:09.522Z,25.69
2023-05-03T10:43:09.513Z,25.17
2023-05-03T10:44:09.507Z,24.22
2023-05-03T10:45:09.512Z,24.76
2023-05-03T10:46:09.529Z,25.42
2023-05-03T10:47:09.461Z,25.19
2023-05-03T10:48:09.519Z,24.77
2023-05-03T10:49:09.470Z,24.85
2023-05-03T10:50:09.522Z,25.09
2023-05-03T10:51:09.465Z,24.68
2023-05-03T10:52:09.444Z,25.25
2023-05-03T10:53:09.478Z,26.05
2023-05-03T10:54:09.461Z,25.71
2023-05-03T10:55:09.411Z,24.95
2023-05-03T10:56:09.424Z,24.98
2023-05-03T10:57:09.401Z,25.13
2023-05-03T10:58:09.418Z,24.31
2023-05-03T10:59:09.413Z,24.85
2023-05-03T11:00:09.437Z,24.68
2023-05-03T11:01:09.458Z,24.52
2023-05-03T11:02:09.440Z,22.89
2023-05-03T11:03:09.384Z,24.12
2023-05-03T11:04:09.399Z,24.53
2023-05-03T11:05:09.466Z,23.32
2023-05-03T11:06:09.423Z,23.35
2023-05-03T11:07:09.345Z,23.05
2023-05-03T11:08:09.340Z,24.64
2023-05-03T11:09:09.417Z,24.19
2023-05-03T11:10:09.400Z,24.35
2023-05-03T11:11:09.330Z,24.92
2023-05-03T11:12:09.346Z,26.09
2023-05-03T11:13:09.330Z,25.68
2023-05-03T11:14:09.336Z,23.92
2023-05-03T11:15:09.317Z,24.83
2023-05-03T11:16:09.339Z,23.68
2023-05-03T11:17:09.469Z,23.86
2023-05-03T11:18:09.345Z,24.12
2023-05-03T11:19:09.298Z,24.61
2023-05-03T11:20:09.329Z,23.43
2023-05-03T11:21:09.308Z,23.42
2023-05-03T11:22:09.475Z,24.73
2023-05-03T11:23:09.347Z,23.77
2023-05-03T11:24:09.653Z,24.61
2023-05-03T11:25:09.254Z,25.50
2023-05-03T11:26:09.255Z,26.21
2023-05-03T11:27:09.288Z,24.98
2023-05-03T11:28:09.275Z,23.64
2023-05-03T11:29:09.328Z,22.28
2023-05-03T11:30:09.323Z,22.93
2023-05-03T11:31:09.213Z,23.26
2023-05-03T11:32:09.417Z,23.90
2023-05-03T11:33:09.364Z,23.46
2023-05-03T11:34:10.265Z,23.42
2023-05-03T11:35:09.256Z,23.08
2023-05-03T11:36:09.201Z,22.41
2023-05-03T11:37:09.215Z,23.09
2023-05-03T11:38:09.193Z,22.77
2023-05-03T11:39:09.201Z,22.23
2023-05-03T11:40:09.206Z,23.20
2023-05-03T11:41:09.192Z,24.49
2023-05-03T11:42:09.164Z,24.83
2023-05-03T11:43:10.182Z,24.75
2023-05-03T11:45:11.251Z,24.13
2023-05-03T11:46:09.363Z,24.34
2023-05-03T11:47:09.208Z,25.13
2023-05-03T11:48:09.196Z,24.97
2023-05-03T11:49:09.165Z,23.09
2023-05-03T11:50:09.183Z,23.15
2023-05-03T11:51:09.172Z,22.90
2023-05-03T11:52:09.225Z,22.75
2023-05-03T11:53:09.129Z,23.11
2023-05-03T11:54:20.913Z,23.32
2023-05-03T11:55:11.154Z,23.32
2023-05-03T11:56:09.152Z,23.39
2023-05-03T11:57:09.136Z,24.60
2023-05-03T11:58:09.116Z,24.07
2023-05-03T11:59:10.473Z,24.92
2023-05-03T12:00:09.155Z,25.02
2023-05-03T12:01:09.111Z,25.01
2023-05-03T12:02:09.239Z,24.17
2023-05-03T12:03:09.245Z,24.97
2023-05-03T12:04:09.183Z,25.19
2023-05-03T12:05:09.957Z,25.17
2023-05-03T12:06:10.140Z,23.95
2023-05-03T12:07:10.635Z,22.57
2023-05-03T12:08:10.381Z,22.69
2023-05-03T12:09:10.231Z,22.59
2023-05-03T12:10:15.439Z,22.52
2023-05-03T12:11:11.432Z,22.64
2023-05-03T12:12:10.725Z,23.71
2023-05-03T12:13:10.593Z,24.27
2023-05-03T12:14:10.613Z,24.76
2023-05-03T12:15:11.300Z,23.14
2023-05-03T12:16:11.830Z,24.23
2023-05-03T12:17:11.476Z,25.09
2023-05-03T12:18:10.565Z,25.86
2023-05-03T12:19:09.368Z,26.37
2023-05-03T12:20:41.987Z,24.54
2023-05-03T12:22:25.051Z,26.24
2023-05-03T12:23:11.562Z,26.22
2023-05-03T12:24:10.853Z,26.43
2023-05-03T12:25:10.504Z,26.72
2023-05-03T12:26:09.927Z,26.72
2023-05-03T12:27:10.253Z,26.52
2023-05-03T12:29:12.022Z,26.61
2023-05-03T12:30:09.662Z,27.19
2023-05-03T12:31:11.612Z,26.89
2023-05-03T12:32:11.812Z,27.51
2023-05-03T12:33:10.087Z,27.94
2023-05-03T12:34:31.635Z,26.62
2023-05-03T12:35:13.879Z,24.73
2023-05-03T12:36:09.718Z,23.80
2023-05-03T12:37:11.524Z,23.80
2023-05-03T12:38:10.520Z,23.68
2023-05-03T12:39:10.029Z,24.44
2023-05-03T12:40:31.670Z,24.61
2023-05-03T12:41:11.015Z,24.60
2023-05-03T12:42:09.704Z,24.20
2023-05-03T12:43:08.980Z,25.27
2023-05-03T12:44:10.581Z,25.99
2023-05-03T12:45:12.546Z,25.35
2023-05-03T12:47:11.151Z,25.07
2023-05-03T12:48:09.163Z,24.53
2023-05-03T12:49:09.289Z,24.85
2023-05-03T12:50:12.239Z,25.82
2023-05-03T12:53:11.039Z,23.75
2023-05-03T12:54:10.424Z,24.12
2023-05-03T12:55:11.569Z,24.23
2023-05-03T12:56:13.240Z,24.35
2023-05-03T12:57:14.693Z,23.67
2023-05-03T13:03:20.437Z,23.04
2023-05-03T13:04:36.935Z,23.12
2023-05-03T13:05:17.981Z,23.61
2023-05-03T13:06:14.034Z,23.83
2023-05-03T13:07:13.475Z,24.44
2023-05-03T13:08:10.704Z,23.60
2023-05-03T13:09:10.062Z,23.62
2023-05-03T13:11:09.842Z,24.29
2023-05-03T13:12:09.038Z,24.87
2023-05-03T13:13:08.766Z,24.37
2023-05-03T13:14:08.772Z,24.26
2023-05-03T13:15:08.966Z,23.39
2023-05-03T13:16:08.799Z,23.35
2023-05-03T13:17:08.731Z,24.76
2023-05-03T13:18:08.840Z,25.69
2023-05-03T13:19:08.738Z,24.26
2023-05-03T13:20:08.758Z,25.16
2023-05-03T13:21:08.701Z,24.82
2023-05-03T13:22:08.693Z,24.52
2023-05-03T13:23:08.735Z,24.27
2023-05-03T13:24:08.673Z,24.47